sensor_id;sensor_type;location;lat;lon;timestamp;P1;durP1;ratioP1;P2;durP2;ratioP2
2928;SDS011;1474;51.460;7.150;2023-11-21T00:01:53;2.05;;;1.40;;
2928;SDS011;1474;51.460;7.150;2023-11-21T00:04:20;2.08;;;1.48;;
2928;SDS011;1474;51.460;7.150;2023-11-21T00:06:46;2.45;;;1.33;;
2928;SDS011;1474;51.460;7.150;2023-11-21T00:09:15;1.50;;;1.40;;
2928;SDS011;1474;51.460;7.150;2023-11-21T00:11:42;2.55;;;1.50;;
2928;SDS011;1474;51.460;7.150;2023-11-21T00:14:09;2.35;;;1.35;;
2928;SDS011;1474;51.460;7.150;2023-11-21T00:16:36;1.75;;;1.40;;
2928;SDS011;1474;51.460;7.150;2023-11-21T00:19:02;2.35;;;1.30;;
2928;SDS011;1474;51.460;7.150;2023-11-21T00:21:28;2.35;;;1.60;;
2928;SDS011;1474;51.460;7.150;2023-11-21T00:23:53;1.35;;;1.00;;
2928;SDS011;1474;51.460;7.150;2023-11-21T00:26:19;3.47;;;1.42;;
2928;SDS011;1474;51.460;7.150;2023-11-21T00:28:45;2.70;;;1.25;;
2928;SDS011;1474;51.460;7.150;2023-11-21T00:31:10;2.25;;;1.25;;
2928;SDS011;1474;51.460;7.150;2023-11-21T00:33:36;1.90;;;1.25;;
2928;SDS011;1474;51.460;7.150;2023-11-21T00:36:02;2.35;;;1.30;;
2928;SDS011;1474;51.460;7.150;2023-11-21T00:38:28;2.72;;;1.67;;
2928;SDS011;1474;51.460;7.150;2023-11-21T00:40:55;1.70;;;1.30;;
2928;SDS011;1474;51.460;7.150;2023-11-21T00:43:24;1.20;;;1.02;;
2928;SDS011;1474;51.460;7.150;2023-11-21T00:45:50;2.15;;;1.58;;
2928;SDS011;1474;51.460;7.150;2023-11-21T00:48:16;2.17;;;1.27;;
2928;SDS011;1474;51.460;7.150;2023-11-21T00:50:43;1.75;;;1.13;;
2928;SDS011;1474;51.460;7.150;2023-11-21T00:53:09;1.52;;;1.30;;
2928;SDS011;1474;51.460;7.150;2023-11-21T00:55:36;1.63;;;1.15;;
2928;SDS011;1474;51.460;7.150;2023-11-21T00:58:05;2.20;;;1.13;;
2928;SDS011;1474;51.460;7.150;2023-11-21T01:00:32;2.30;;;1.83;;
2928;SDS011;1474;51.460;7.150;2023-11-21T01:02:59;1.48;;;1.10;;
2928;SDS011;1474;51.460;7.150;2023-11-21T01:05:25;1.55;;;1.10;;
2928;SDS011;1474;51.460;7.150;2023-11-21T01:07:51;1.88;;;1.38;;
2928;SDS011;1474;51.460;7.150;2023-11-21T01:10:17;2.15;;;1.42;;
2928;SDS011;1474;51.460;7.150;2023-11-21T01:12:43;1.70;;;1.10;;
2928;SDS011;1474;51.460;7.150;2023-11-21T01:15:09;2.05;;;1.30;;
2928;SDS011;1474;51.460;7.150;2023-11-21T01:17:37;1.60;;;1.30;;
2928;SDS011;1474;51.460;7.150;2023-11-21T01:20:03;1.83;;;1.50;;
2928;SDS011;1474;51.460;7.150;2023-11-21T01:22:36;2.00;;;1.50;;
2928;SDS011;1474;51.460;7.150;2023-11-21T01:25:01;1.98;;;1.40;;
2928;SDS011;1474;51.460;7.150;2023-11-21T01:27:29;1.60;;;1.35;;
2928;SDS011;1474;51.460;7.150;2023-11-21T01:29:55;2.05;;;1.83;;
2928;SDS011;1474;51.460;7.150;2023-11-21T01:32:21;1.50;;;1.20;;
2928;SDS011;1474;51.460;7.150;2023-11-21T01:34:47;2.20;;;1.00;;
2928;SDS011;1474;51.460;7.150;2023-11-21T01:37:15;1.80;;;1.30;;
2928;SDS011;1474;51.460;7.150;2023-11-21T01:39:42;1.30;;;1.02;;
2928;SDS011;1474;51.460;7.150;2023-11-21T01:42:09;1.52;;;1.20;;
2928;SDS011;1474;51.460;7.150;2023-11-21T01:44:37;2.00;;;1.27;;
2928;SDS011;1474;51.460;7.150;2023-11-21T01:47:05;2.08;;;1.30;;
2928;SDS011;1474;51.460;7.150;2023-11-21T01:49:35;2.20;;;1.33;;
2928;SDS011;1474;51.460;7.150;2023-11-21T01:52:01;1.08;;;0.98;;
2928;SDS011;1474;51.460;7.150;2023-11-21T01:54:29;1.75;;;1.40;;
2928;SDS011;1474;51.460;7.150;2023-11-21T01:56:57;1.77;;;1.65;;
2928;SDS011;1474;51.460;7.150;2023-11-21T01:59:35;2.72;;;1.40;;
2928;SDS011;1474;51.460;7.150;2023-11-21T02:02:06;2.08;;;1.17;;
2928;SDS011;1474;51.460;7.150;2023-11-21T02:04:32;1.98;;;1.27;;
2928;SDS011;1474;51.460;7.150;2023-11-21T02:06:59;2.63;;;1.33;;
2928;SDS011;1474;51.460;7.150;2023-11-21T02:09:26;2.10;;;1.30;;
2928;SDS011;1474;51.460;7.150;2023-11-21T02:11:56;2.55;;;1.15;;
2928;SDS011;1474;51.460;7.150;2023-11-21T02:14:23;2.05;;;1.25;;
2928;SDS011;1474;51.460;7.150;2023-11-21T02:16:53;1.65;;;1.20;;
2928;SDS011;1474;51.460;7.150;2023-11-21T02:19:20;1.70;;;1.10;;
2928;SDS011;1474;51.460;7.150;2023-11-21T02:21:55;2.42;;;1.27;;
2928;SDS011;1474;51.460;7.150;2023-11-21T02:24:31;1.95;;;1.25;;
2928;SDS011;1474;51.460;7.150;2023-11-21T02:26:58;1.88;;;1.42;;
2928;SDS011;1474;51.460;7.150;2023-11-21T02:29:23;2.28;;;1.38;;
2928;SDS011;1474;51.460;7.150;2023-11-21T02:31:55;1.88;;;1.30;;
2928;SDS011;1474;51.460;7.150;2023-11-21T02:34:21;1.75;;;1.08;;
2928;SDS011;1474;51.460;7.150;2023-11-21T02:36:49;1.40;;;1.00;;
2928;SDS011;1474;51.460;7.150;2023-11-21T02:39:16;1.60;;;1.20;;
2928;SDS011;1474;51.460;7.150;2023-11-21T02:41:43;1.50;;;1.15;;
2928;SDS011;1474;51.460;7.150;2023-11-21T02:44:09;1.45;;;1.20;;
2928;SDS011;1474;51.460;7.150;2023-11-21T02:46:36;1.40;;;1.30;;
2928;SDS011;1474;51.460;7.150;2023-11-21T02:49:02;2.75;;;1.40;;
2928;SDS011;1474;51.460;7.150;2023-11-21T02:51:31;1.75;;;1.63;;
2928;SDS011;1474;51.460;7.150;2023-11-21T02:53:57;1.55;;;1.23;;
2928;SDS011;1474;51.460;7.150;2023-11-21T02:56:27;1.58;;;1.20;;
2928;SDS011;1474;51.460;7.150;2023-11-21T02:58:56;2.22;;;1.50;;
2928;SDS011;1474;51.460;7.150;2023-11-21T03:01:22;2.88;;;1.83;;
2928;SDS011;1474;51.460;7.150;2023-11-21T03:03:52;2.22;;;1.63;;
2928;SDS011;1474;51.460;7.150;2023-11-21T03:06:19;2.10;;;1.15;;
2928;SDS011;1474;51.460;7.150;2023-11-21T03:08:45;1.80;;;1.42;;
2928;SDS011;1474;51.460;7.150;2023-11-21T03:11:12;1.83;;;1.25;;
2928;SDS011;1474;51.460;7.150;2023-11-21T03:13:39;1.20;;;1.08;;
2928;SDS011;1474;51.460;7.150;2023-11-21T03:16:07;2.33;;;1.30;;
2928;SDS011;1474;51.460;7.150;2023-11-21T03:18:35;2.33;;;1.48;;
2928;SDS011;1474;51.460;7.150;2023-11-21T03:21:02;1.13;;;1.00;;
2928;SDS011;1474;51.460;7.150;2023-11-21T03:23:29;2.63;;;1.33;;
2928;SDS011;1474;51.460;7.150;2023-11-21T03:25:56;2.10;;;1.50;;
2928;SDS011;1474;51.460;7.150;2023-11-21T03:28:21;1.75;;;1.30;;
2928;SDS011;1474;51.460;7.150;2023-11-21T03:30:48;1.88;;;1.25;;
2928;SDS011;1474;51.460;7.150;2023-11-21T03:33:14;1.88;;;1.70;;
2928;SDS011;1474;51.460;7.150;2023-11-21T03:35:40;2.20;;;1.20;;
2928;SDS011;1474;51.460;7.150;2023-11-21T03:38:07;1.83;;;1.45;;
2928;SDS011;1474;51.460;7.150;2023-11-21T03:40:34;1.63;;;0.90;;
2928;SDS011;1474;51.460;7.150;2023-11-21T03:43:00;1.58;;;1.20;;
2928;SDS011;1474;51.460;7.150;2023-11-21T03:45:26;1.52;;;1.20;;
2928;SDS011;1474;51.460;7.150;2023-11-21T03:47:52;1.45;;;1.10;;
2928;SDS011;1474;51.460;7.150;2023-11-21T03:50:17;1.67;;;1.30;;
2928;SDS011;1474;51.460;7.150;2023-11-21T03:52:43;2.65;;;1.45;;
2928;SDS011;1474;51.460;7.150;2023-11-21T03:55:09;0.70;;;0.70;;
2928;SDS011;1474;51.460;7.150;2023-11-21T03:57:35;2.33;;;1.58;;
2928;SDS011;1474;51.460;7.150;2023-11-21T04:00:01;1.45;;;1.27;;
2928;SDS011;1474;51.460;7.150;2023-11-21T04:02:33;1.52;;;1.20;;
2928;SDS011;1474;51.460;7.150;2023-11-21T04:05:00;1.30;;;1.10;;
2928;SDS011;1474;51.460;7.150;2023-11-21T04:07:26;1.92;;;1.27;;
2928;SDS011;1474;51.460;7.150;2023-11-21T04:09:52;2.45;;;1.75;;
2928;SDS011;1474;51.460;7.150;2023-11-21T04:12:18;1.40;;;1.20;;
2928;SDS011;1474;51.460;7.150;2023-11-21T04:14:44;1.20;;;1.08;;
2928;SDS011;1474;51.460;7.150;2023-11-21T04:17:10;1.70;;;1.20;;
2928;SDS011;1474;51.460;7.150;2023-11-21T04:19:36;1.70;;;1.15;;
2928;SDS011;1474;51.460;7.150;2023-11-21T04:22:02;1.85;;;1.10;;
2928;SDS011;1474;51.460;7.150;2023-11-21T04:24:29;1.77;;;1.05;;
2928;SDS011;1474;51.460;7.150;2023-11-21T04:26:54;1.40;;;1.13;;
2928;SDS011;1474;51.460;7.150;2023-11-21T04:29:20;2.25;;;1.60;;
2928;SDS011;1474;51.460;7.150;2023-11-21T04:31:46;1.80;;;1.02;;
2928;SDS011;1474;51.460;7.150;2023-11-21T04:34:14;1.88;;;1.02;;
2928;SDS011;1474;51.460;7.150;2023-11-21T04:36:40;2.00;;;1.30;;
2928;SDS011;1474;51.460;7.150;2023-11-21T04:39:05;1.90;;;1.20;;
2928;SDS011;1474;51.460;7.150;2023-11-21T04:41:32;2.05;;;1.25;;
2928;SDS011;1474;51.460;7.150;2023-11-21T04:43:57;2.15;;;1.23;;
2928;SDS011;1474;51.460;7.150;2023-11-21T04:46:25;1.70;;;1.00;;
2928;SDS011;1474;51.460;7.150;2023-11-21T04:48:51;1.67;;;0.93;;
2928;SDS011;1474;51.460;7.150;2023-11-21T04:51:17;1.67;;;1.20;;
2928;SDS011;1474;51.460;7.150;2023-11-21T04:53:43;1.45;;;1.13;;
2928;SDS011;1474;51.460;7.150;2023-11-21T04:56:08;1.58;;;1.42;;
2928;SDS011;1474;51.460;7.150;2023-11-21T04:58:34;1.95;;;1.05;;
2928;SDS011;1474;51.460;7.150;2023-11-21T05:01:01;1.80;;;1.20;;
2928;SDS011;1474;51.460;7.150;2023-11-21T05:03:26;1.50;;;1.40;;
2928;SDS011;1474;51.460;7.150;2023-11-21T05:05:54;2.05;;;0.95;;
2928;SDS011;1474;51.460;7.150;2023-11-21T05:08:20;2.03;;;1.70;;
2928;SDS011;1474;51.460;7.150;2023-11-21T05:10:47;1.38;;;1.00;;
2928;SDS011;1474;51.460;7.150;2023-11-21T05:13:14;1.83;;;1.38;;
2928;SDS011;1474;51.460;7.150;2023-11-21T05:15:42;1.50;;;1.05;;
2928;SDS011;1474;51.460;7.150;2023-11-21T05:18:09;1.20;;;1.05;;
2928;SDS011;1474;51.460;7.150;2023-11-21T05:20:35;2.20;;;1.30;;
2928;SDS011;1474;51.460;7.150;2023-11-21T05:23:01;1.30;;;1.00;;
2928;SDS011;1474;51.460;7.150;2023-11-21T05:25:27;2.67;;;1.20;;
2928;SDS011;1474;51.460;7.150;2023-11-21T05:27:52;1.92;;;1.23;;
2928;SDS011;1474;51.460;7.150;2023-11-21T05:30:19;2.28;;;1.15;;
2928;SDS011;1474;51.460;7.150;2023-11-21T05:32:46;1.40;;;1.13;;
2928;SDS011;1474;51.460;7.150;2023-11-21T05:35:12;1.52;;;1.40;;
2928;SDS011;1474;51.460;7.150;2023-11-21T05:37:41;0.93;;;0.82;;
2928;SDS011;1474;51.460;7.150;2023-11-21T05:40:07;1.23;;;1.13;;
2928;SDS011;1474;51.460;7.150;2023-11-21T05:42:34;2.88;;;1.10;;
2928;SDS011;1474;51.460;7.150;2023-11-21T05:45:01;1.67;;;1.25;;
2928;SDS011;1474;51.460;7.150;2023-11-21T05:47:38;2.38;;;1.55;;
2928;SDS011;1474;51.460;7.150;2023-11-21T05:50:11;2.55;;;1.38;;
2928;SDS011;1474;51.460;7.150;2023-11-21T05:52:40;1.38;;;1.13;;
2928;SDS011;1474;51.460;7.150;2023-11-21T05:55:08;1.40;;;1.10;;
2928;SDS011;1474;51.460;7.150;2023-11-21T05:57:35;1.85;;;1.05;;
2928;SDS011;1474;51.460;7.150;2023-11-21T06:00:05;1.60;;;0.90;;
2928;SDS011;1474;51.460;7.150;2023-11-21T06:02:48;2.17;;;1.30;;
2928;SDS011;1474;51.460;7.150;2023-11-21T06:05:17;1.75;;;1.33;;
2928;SDS011;1474;51.460;7.150;2023-11-21T06:07:44;1.27;;;0.93;;
2928;SDS011;1474;51.460;7.150;2023-11-21T06:10:10;1.60;;;1.08;;
2928;SDS011;1474;51.460;7.150;2023-11-21T06:12:39;2.58;;;1.20;;
2928;SDS011;1474;51.460;7.150;2023-11-21T06:15:08;1.65;;;1.30;;
2928;SDS011;1474;51.460;7.150;2023-11-21T06:17:38;1.50;;;1.23;;
2928;SDS011;1474;51.460;7.150;2023-11-21T06:20:05;1.92;;;1.38;;
2928;SDS011;1474;51.460;7.150;2023-11-21T06:22:41;1.13;;;0.97;;
2928;SDS011;1474;51.460;7.150;2023-11-21T06:25:08;1.70;;;1.20;;
2928;SDS011;1474;51.460;7.150;2023-11-21T06:27:38;1.75;;;0.90;;
2928;SDS011;1474;51.460;7.150;2023-11-21T06:30:08;2.17;;;1.23;;
2928;SDS011;1474;51.460;7.150;2023-11-21T06:32:35;1.23;;;1.10;;
2928;SDS011;1474;51.460;7.150;2023-11-21T06:35:02;1.35;;;1.25;;
2928;SDS011;1474;51.460;7.150;2023-11-21T06:37:29;2.05;;;1.23;;
2928;SDS011;1474;51.460;7.150;2023-11-21T06:39:57;1.70;;;1.20;;
2928;SDS011;1474;51.460;7.150;2023-11-21T06:42:24;1.58;;;1.30;;
2928;SDS011;1474;51.460;7.150;2023-11-21T06:44:51;1.40;;;1.02;;
2928;SDS011;1474;51.460;7.150;2023-11-21T06:47:17;1.33;;;1.10;;
2928;SDS011;1474;51.460;7.150;2023-11-21T06:49:45;1.75;;;1.00;;
2928;SDS011;1474;51.460;7.150;2023-11-21T06:52:13;1.10;;;1.00;;
2928;SDS011;1474;51.460;7.150;2023-11-21T06:54:39;2.35;;;1.50;;
2928;SDS011;1474;51.460;7.150;2023-11-21T06:57:04;1.50;;;1.40;;
2928;SDS011;1474;51.460;7.150;2023-11-21T06:59:30;1.48;;;1.10;;
2928;SDS011;1474;51.460;7.150;2023-11-21T07:01:56;1.35;;;0.80;;
2928;SDS011;1474;51.460;7.150;2023-11-21T07:04:22;1.90;;;1.20;;
2928;SDS011;1474;51.460;7.150;2023-11-21T07:06:50;1.52;;;0.95;;
2928;SDS011;1474;51.460;7.150;2023-11-21T07:09:18;2.00;;;1.17;;
2928;SDS011;1474;51.460;7.150;2023-11-21T07:11:47;1.20;;;0.98;;
2928;SDS011;1474;51.460;7.150;2023-11-21T07:14:14;1.80;;;1.30;;
2928;SDS011;1474;51.460;7.150;2023-11-21T07:16:41;1.33;;;1.20;;
2928;SDS011;1474;51.460;7.150;2023-11-21T07:19:06;1.30;;;1.20;;
2928;SDS011;1474;51.460;7.150;2023-11-21T07:21:33;1.67;;;1.15;;
2928;SDS011;1474;51.460;7.150;2023-11-21T07:24:01;1.75;;;1.30;;
2928;SDS011;1474;51.460;7.150;2023-11-21T07:26:28;2.58;;;1.52;;
2928;SDS011;1474;51.460;7.150;2023-11-21T07:28:55;3.08;;;1.20;;
2928;SDS011;1474;51.460;7.150;2023-11-21T07:31:21;1.38;;;1.00;;
2928;SDS011;1474;51.460;7.150;2023-11-21T07:33:49;1.50;;;0.93;;
2928;SDS011;1474;51.460;7.150;2023-11-21T07:36:16;1.70;;;1.23;;
2928;SDS011;1474;51.460;7.150;2023-11-21T07:38:48;1.92;;;1.10;;
2928;SDS011;1474;51.460;7.150;2023-11-21T07:41:15;2.30;;;1.38;;
2928;SDS011;1474;51.460;7.150;2023-11-21T07:43:43;1.60;;;1.10;;
2928;SDS011;1474;51.460;7.150;2023-11-21T07:46:12;1.50;;;1.10;;
2928;SDS011;1474;51.460;7.150;2023-11-21T07:48:39;2.05;;;1.20;;
2928;SDS011;1474;51.460;7.150;2023-11-21T07:51:07;1.65;;;1.10;;
2928;SDS011;1474;51.460;7.150;2023-11-21T07:53:34;2.45;;;1.45;;
2928;SDS011;1474;51.460;7.150;2023-11-21T07:56:03;2.00;;;1.42;;
2928;SDS011;1474;51.460;7.150;2023-11-21T07:58:34;1.80;;;1.40;;
2928;SDS011;1474;51.460;7.150;2023-11-21T08:01:01;2.25;;;1.33;;
2928;SDS011;1474;51.460;7.150;2023-11-21T08:03:30;1.40;;;1.05;;
2928;SDS011;1474;51.460;7.150;2023-11-21T08:05:56;1.15;;;1.02;;
2928;SDS011;1474;51.460;7.150;2023-11-21T08:08:23;1.65;;;1.10;;
2928;SDS011;1474;51.460;7.150;2023-11-21T08:10:50;1.77;;;1.00;;
2928;SDS011;1474;51.460;7.150;2023-11-21T08:13:25;1.60;;;1.15;;
2928;SDS011;1474;51.460;7.150;2023-11-21T08:15:56;1.80;;;1.20;;
2928;SDS011;1474;51.460;7.150;2023-11-21T08:18:30;1.35;;;1.00;;
2928;SDS011;1474;51.460;7.150;2023-11-21T08:20:56;1.67;;;0.90;;
2928;SDS011;1474;51.460;7.150;2023-11-21T08:23:22;2.10;;;1.27;;
2928;SDS011;1474;51.460;7.150;2023-11-21T08:25:51;3.03;;;1.42;;
2928;SDS011;1474;51.460;7.150;2023-11-21T08:28:18;0.75;;;0.73;;
2928;SDS011;1474;51.460;7.150;2023-11-21T08:30:50;1.40;;;1.15;;
2928;SDS011;1474;51.460;7.150;2023-11-21T08:33:17;1.55;;;1.25;;
2928;SDS011;1474;51.460;7.150;2023-11-21T08:35:43;1.88;;;0.95;;
2928;SDS011;1474;51.460;7.150;2023-11-21T08:38:10;2.17;;;1.38;;
2928;SDS011;1474;51.460;7.150;2023-11-21T08:40:37;1.80;;;1.20;;
2928;SDS011;1474;51.460;7.150;2023-11-21T08:43:03;2.90;;;1.25;;
2928;SDS011;1474;51.460;7.150;2023-11-21T08:45:33;1.48;;;1.38;;
2928;SDS011;1474;51.460;7.150;2023-11-21T08:47:59;1.88;;;1.10;;
2928;SDS011;1474;51.460;7.150;2023-11-21T08:50:26;1.85;;;1.00;;
2928;SDS011;1474;51.460;7.150;2023-11-21T08:52:51;2.10;;;1.33;;
2928;SDS011;1474;51.460;7.150;2023-11-21T08:55:17;1.98;;;1.20;;
2928;SDS011;1474;51.460;7.150;2023-11-21T08:57:45;1.35;;;0.90;;
2928;SDS011;1474;51.460;7.150;2023-11-21T09:00:14;1.75;;;1.10;;
2928;SDS011;1474;51.460;7.150;2023-11-21T09:02:41;2.22;;;1.20;;
2928;SDS011;1474;51.460;7.150;2023-11-21T09:05:09;1.67;;;1.20;;
2928;SDS011;1474;51.460;7.150;2023-11-21T09:07:36;1.60;;;1.20;;
2928;SDS011;1474;51.460;7.150;2023-11-21T09:10:04;3.70;;;1.30;;
2928;SDS011;1474;51.460;7.150;2023-11-21T09:12:32;1.85;;;1.30;;
2928;SDS011;1474;51.460;7.150;2023-11-21T09:15:01;3.25;;;1.60;;
2928;SDS011;1474;51.460;7.150;2023-11-21T09:17:31;4.03;;;1.77;;
2928;SDS011;1474;51.460;7.150;2023-11-21T09:19:59;4.78;;;1.85;;
2928;SDS011;1474;51.460;7.150;2023-11-21T09:22:25;2.88;;;1.60;;
2928;SDS011;1474;51.460;7.150;2023-11-21T09:24:51;3.72;;;1.90;;
2928;SDS011;1474;51.460;7.150;2023-11-21T09:27:17;7.53;;;2.33;;
2928;SDS011;1474;51.460;7.150;2023-11-21T09:29:43;7.07;;;2.35;;
2928;SDS011;1474;51.460;7.150;2023-11-21T09:32:09;8.02;;;2.45;;
2928;SDS011;1474;51.460;7.150;2023-11-21T09:34:37;9.32;;;2.97;;
2928;SDS011;1474;51.460;7.150;2023-11-21T09:37:06;9.02;;;2.20;;
2928;SDS011;1474;51.460;7.150;2023-11-21T09:39:33;7.57;;;2.70;;
2928;SDS011;1474;51.460;7.150;2023-11-21T09:42:10;5.38;;;2.10;;
2928;SDS011;1474;51.460;7.150;2023-11-21T09:47:38;6.32;;;2.20;;
2928;SDS011;1474;51.460;7.150;2023-11-21T09:50:04;5.88;;;2.15;;
2928;SDS011;1474;51.460;7.150;2023-11-21T09:55:35;10.30;;;2.13;;
2928;SDS011;1474;51.460;7.150;2023-11-21T09:58:03;3.97;;;2.33;;
2928;SDS011;1474;51.460;7.150;2023-11-21T10:00:32;6.65;;;2.20;;
2928;SDS011;1474;51.460;7.150;2023-11-21T10:02:59;5.95;;;2.40;;
2928;SDS011;1474;51.460;7.150;2023-11-21T10:05:25;4.82;;;1.85;;
2928;SDS011;1474;51.460;7.150;2023-11-21T10:07:51;5.28;;;2.53;;
2928;SDS011;1474;51.460;7.150;2023-11-21T10:10:19;4.80;;;2.25;;
2928;SDS011;1474;51.460;7.150;2023-11-21T10:12:50;3.67;;;2.10;;
2928;SDS011;1474;51.460;7.150;2023-11-21T10:15:22;8.60;;;2.83;;
2928;SDS011;1474;51.460;7.150;2023-11-21T10:17:52;4.50;;;2.13;;
2928;SDS011;1474;51.460;7.150;2023-11-21T10:20:20;5.35;;;2.30;;
2928;SDS011;1474;51.460;7.150;2023-11-21T10:22:46;6.30;;;3.00;;
2928;SDS011;1474;51.460;7.150;2023-11-21T10:25:12;6.90;;;2.67;;
2928;SDS011;1474;51.460;7.150;2023-11-21T10:27:40;4.60;;;2.38;;
2928;SDS011;1474;51.460;7.150;2023-11-21T10:30:07;5.47;;;2.58;;
2928;SDS011;1474;51.460;7.150;2023-11-21T10:32:37;5.88;;;2.65;;
2928;SDS011;1474;51.460;7.150;2023-11-21T10:35:05;2.78;;;1.95;;
2928;SDS011;1474;51.460;7.150;2023-11-21T10:37:38;4.95;;;2.25;;
2928;SDS011;1474;51.460;7.150;2023-11-21T10:40:08;4.97;;;3.13;;
2928;SDS011;1474;51.460;7.150;2023-11-21T10:42:37;6.78;;;2.85;;
2928;SDS011;1474;51.460;7.150;2023-11-21T10:45:04;5.53;;;2.63;;
2928;SDS011;1474;51.460;7.150;2023-11-21T10:47:38;4.00;;;2.30;;
2928;SDS011;1474;51.460;7.150;2023-11-21T10:50:06;4.93;;;2.60;;
2928;SDS011;1474;51.460;7.150;2023-11-21T10:52:45;7.80;;;2.92;;
2928;SDS011;1474;51.460;7.150;2023-11-21T10:55:19;2.85;;;2.03;;
2928;SDS011;1474;51.460;7.150;2023-11-21T10:57:51;3.30;;;2.20;;
2928;SDS011;1474;51.460;7.150;2023-11-21T11:00:19;6.93;;;2.47;;
2928;SDS011;1474;51.460;7.150;2023-11-21T11:02:50;3.63;;;2.22;;
2928;SDS011;1474;51.460;7.150;2023-11-21T11:05:19;4.57;;;2.70;;
2928;SDS011;1474;51.460;7.150;2023-11-21T11:07:49;4.45;;;2.17;;
2928;SDS011;1474;51.460;7.150;2023-11-21T11:10:29;4.50;;;2.95;;
2928;SDS011;1474;51.460;7.150;2023-11-21T11:12:55;4.38;;;2.13;;
2928;SDS011;1474;51.460;7.150;2023-11-21T11:15:24;6.93;;;2.88;;
2928;SDS011;1474;51.460;7.150;2023-11-21T11:17:52;3.97;;;2.38;;
2928;SDS011;1474;51.460;7.150;2023-11-21T11:23:09;5.55;;;2.85;;
2928;SDS011;1474;51.460;7.150;2023-11-21T11:26:07;7.43;;;2.97;;
2928;SDS011;1474;51.460;7.150;2023-11-21T11:31:44;5.00;;;2.55;;
2928;SDS011;1474;51.460;7.150;2023-11-21T11:34:48;5.43;;;2.85;;
2928;SDS011;1474;51.460;7.150;2023-11-21T11:37:28;6.20;;;3.25;;
2928;SDS011;1474;51.460;7.150;2023-11-21T11:39:55;8.38;;;2.72;;
2928;SDS011;1474;51.460;7.150;2023-11-21T11:42:22;6.10;;;2.50;;
2928;SDS011;1474;51.460;7.150;2023-11-21T11:44:49;4.30;;;2.90;;
2928;SDS011;1474;51.460;7.150;2023-11-21T11:52:48;5.07;;;2.85;;
2928;SDS011;1474;51.460;7.150;2023-11-21T11:55:17;5.10;;;3.17;;
2928;SDS011;1474;51.460;7.150;2023-11-21T11:57:52;4.72;;;2.83;;
2928;SDS011;1474;51.460;7.150;2023-11-21T12:00:22;7.05;;;3.42;;
2928;SDS011;1474;51.460;7.150;2023-11-21T12:02:51;7.22;;;3.17;;
2928;SDS011;1474;51.460;7.150;2023-11-21T12:05:28;6.30;;;3.72;;
2928;SDS011;1474;51.460;7.150;2023-11-21T12:08:03;5.50;;;2.78;;
2928;SDS011;1474;51.460;7.150;2023-11-21T12:10:32;5.68;;;3.63;;
2928;SDS011;1474;51.460;7.150;2023-11-21T12:13:08;6.63;;;3.72;;
2928;SDS011;1474;51.460;7.150;2023-11-21T12:15:37;7.70;;;3.30;;
2928;SDS011;1474;51.460;7.150;2023-11-21T12:18:03;5.65;;;3.05;;
2928;SDS011;1474;51.460;7.150;2023-11-21T12:20:30;4.55;;;2.80;;
2928;SDS011;1474;51.460;7.150;2023-11-21T12:23:03;4.95;;;3.40;;
2928;SDS011;1474;51.460;7.150;2023-11-21T12:25:30;6.30;;;3.38;;
2928;SDS011;1474;51.460;7.150;2023-11-21T12:27:58;6.20;;;3.10;;
2928;SDS011;1474;51.460;7.150;2023-11-21T12:30:26;5.93;;;3.67;;
2928;SDS011;1474;51.460;7.150;2023-11-21T12:32:56;5.63;;;3.28;;
2928;SDS011;1474;51.460;7.150;2023-11-21T12:35:24;6.60;;;3.47;;
2928;SDS011;1474;51.460;7.150;2023-11-21T12:37:56;6.78;;;3.40;;
2928;SDS011;1474;51.460;7.150;2023-11-21T12:40:22;5.80;;;3.33;;
2928;SDS011;1474;51.460;7.150;2023-11-21T12:42:49;9.35;;;4.30;;
2928;SDS011;1474;51.460;7.150;2023-11-21T12:47:51;7.05;;;3.70;;
2928;SDS011;1474;51.460;7.150;2023-11-21T12:50:22;5.50;;;3.40;;
2928;SDS011;1474;51.460;7.150;2023-11-21T12:52:53;7.05;;;3.50;;
2928;SDS011;1474;51.460;7.150;2023-11-21T12:57:54;7.32;;;3.67;;
2928;SDS011;1474;51.460;7.150;2023-11-21T13:01:06;5.72;;;3.38;;
2928;SDS011;1474;51.460;7.150;2023-11-21T13:03:12;4.65;;;2.63;;
2928;SDS011;1474;51.460;7.150;2023-11-21T13:05:50;5.47;;;3.78;;
2928;SDS011;1474;51.460;7.150;2023-11-21T13:08:22;6.28;;;4.07;;
2928;SDS011;1474;51.460;7.150;2023-11-21T13:10:51;5.95;;;3.33;;
2928;SDS011;1474;51.460;7.150;2023-11-21T13:13:22;6.10;;;3.35;;
2928;SDS011;1474;51.460;7.150;2023-11-21T13:15:50;5.68;;;3.72;;
2928;SDS011;1474;51.460;7.150;2023-11-21T13:20:57;6.90;;;3.80;;
2928;SDS011;1474;51.460;7.150;2023-11-21T13:23:27;8.13;;;3.40;;
2928;SDS011;1474;51.460;7.150;2023-11-21T13:25:54;5.10;;;3.33;;
2928;SDS011;1474;51.460;7.150;2023-11-21T13:28:20;4.15;;;2.72;;
2928;SDS011;1474;51.460;7.150;2023-11-21T13:30:47;9.25;;;3.72;;
2928;SDS011;1474;51.460;7.150;2023-11-21T13:35:46;7.20;;;3.70;;
2928;SDS011;1474;51.460;7.150;2023-11-21T13:38:15;4.68;;;3.17;;
2928;SDS011;1474;51.460;7.150;2023-11-21T13:40:49;6.40;;;3.20;;
2928;SDS011;1474;51.460;7.150;2023-11-21T13:43:19;4.75;;;3.13;;
2928;SDS011;1474;51.460;7.150;2023-11-21T13:45:49;6.22;;;3.17;;
2928;SDS011;1474;51.460;7.150;2023-11-21T13:48:23;6.25;;;3.20;;
2928;SDS011;1474;51.460;7.150;2023-11-21T13:51:22;4.00;;;3.25;;
2928;SDS011;1474;51.460;7.150;2023-11-21T13:53:56;5.72;;;3.30;;
2928;SDS011;1474;51.460;7.150;2023-11-21T13:56:22;6.07;;;3.75;;
2928;SDS011;1474;51.460;7.150;2023-11-21T13:58:52;5.93;;;3.10;;
2928;SDS011;1474;51.460;7.150;2023-11-21T14:01:19;7.40;;;4.13;;
2928;SDS011;1474;51.460;7.150;2023-11-21T14:03:58;5.80;;;2.92;;
2928;SDS011;1474;51.460;7.150;2023-11-21T14:06:42;7.00;;;3.75;;
2928;SDS011;1474;51.460;7.150;2023-11-21T14:09:19;7.63;;;3.97;;
2928;SDS011;1474;51.460;7.150;2023-11-21T14:11:58;5.70;;;3.47;;
2928;SDS011;1474;51.460;7.150;2023-11-21T14:14:26;8.52;;;3.40;;
2928;SDS011;1474;51.460;7.150;2023-11-21T14:16:56;12.95;;;4.15;;
2928;SDS011;1474;51.460;7.150;2023-11-21T14:19:23;5.97;;;2.97;;
2928;SDS011;1474;51.460;7.150;2023-11-21T14:21:55;6.45;;;3.47;;
2928;SDS011;1474;51.460;7.150;2023-11-21T14:24:21;5.97;;;3.42;;
2928;SDS011;1474;51.460;7.150;2023-11-21T14:26:48;5.65;;;3.13;;
2928;SDS011;1474;51.460;7.150;2023-11-21T14:29:18;9.85;;;2.67;;
2928;SDS011;1474;51.460;7.150;2023-11-21T14:31:48;7.85;;;3.00;;
2928;SDS011;1474;51.460;7.150;2023-11-21T14:34:21;9.82;;;3.15;;
2928;SDS011;1474;51.460;7.150;2023-11-21T14:36:47;6.25;;;3.20;;
2928;SDS011;1474;51.460;7.150;2023-11-21T14:39:14;7.07;;;3.22;;
2928;SDS011;1474;51.460;7.150;2023-11-21T14:41:49;5.63;;;2.85;;
2928;SDS011;1474;51.460;7.150;2023-11-21T14:44:15;10.15;;;3.22;;
2928;SDS011;1474;51.460;7.150;2023-11-21T14:46:42;5.72;;;2.90;;
2928;SDS011;1474;51.460;7.150;2023-11-21T14:49:11;6.93;;;3.40;;
2928;SDS011;1474;51.460;7.150;2023-11-21T14:51:51;7.35;;;2.95;;
2928;SDS011;1474;51.460;7.150;2023-11-21T14:54:29;7.00;;;3.13;;
2928;SDS011;1474;51.460;7.150;2023-11-21T14:57:19;4.65;;;2.65;;
2928;SDS011;1474;51.460;7.150;2023-11-21T14:59:48;4.85;;;2.30;;
2928;SDS011;1474;51.460;7.150;2023-11-21T15:02:22;4.22;;;2.45;;
2928;SDS011;1474;51.460;7.150;2023-11-21T15:05:08;3.90;;;2.40;;
2928;SDS011;1474;51.460;7.150;2023-11-21T15:07:41;8.50;;;2.83;;
2928;SDS011;1474;51.460;7.150;2023-11-21T15:10:07;6.82;;;2.42;;
2928;SDS011;1474;51.460;7.150;2023-11-21T15:12:39;5.60;;;2.28;;
2928;SDS011;1474;51.460;7.150;2023-11-21T15:15:08;4.68;;;2.50;;
2928;SDS011;1474;51.460;7.150;2023-11-21T15:17:35;5.07;;;2.25;;
2928;SDS011;1474;51.460;7.150;2023-11-21T15:20:02;4.30;;;2.80;;
2928;SDS011;1474;51.460;7.150;2023-11-21T15:22:32;3.83;;;2.38;;
2928;SDS011;1474;51.460;7.150;2023-11-21T15:24:57;3.13;;;2.15;;
2928;SDS011;1474;51.460;7.150;2023-11-21T15:27:25;5.72;;;2.75;;
2928;SDS011;1474;51.460;7.150;2023-11-21T15:29:55;6.72;;;2.60;;
2928;SDS011;1474;51.460;7.150;2023-11-21T15:32:21;3.95;;;1.83;;
2928;SDS011;1474;51.460;7.150;2023-11-21T15:34:47;4.43;;;2.30;;
2928;SDS011;1474;51.460;7.150;2023-11-21T15:37:12;4.93;;;1.98;;
2928;SDS011;1474;51.460;7.150;2023-11-21T15:39:38;6.47;;;2.20;;
2928;SDS011;1474;51.460;7.150;2023-11-21T15:42:13;4.78;;;2.70;;
2928;SDS011;1474;51.460;7.150;2023-11-21T15:44:39;4.10;;;2.40;;
2928;SDS011;1474;51.460;7.150;2023-11-21T15:47:08;5.85;;;1.90;;
2928;SDS011;1474;51.460;7.150;2023-11-21T15:49:34;3.80;;;2.17;;
2928;SDS011;1474;51.460;7.150;2023-11-21T15:52:01;8.38;;;2.35;;